Huvudsida
METAR-TAF:

METAR-TAF

Flygplatser :

Pärnu, Estland

Pärnu flygplats

latitud: 58-25-09N, longitud: 024-28-22E, höjd: 14 m

Aktuellt väderrapport

Denna rapport gjordes för 2 timmar och 15 minuter sedan, klockan 12:50 UTC
Vind 17 kt från nordväst i byarna ända upp till 28 kt, varierande mellan väst och nord/nordväst
Temperatur 13°C
Fuktighet 47%
Tryck 1005 hPa
Sikt 10 km eller mer
Få moln på en höjd av 4200 ft

METAR: EEPU 211250Z 31017G28KT 280V340 9999 FEW042 13/02 Q1005

Tid: 18:05 (15:05 UTC)


TAF: saknas

Aktuella väderrapporter och prognoser från 4000 flygplatser (METAR- och TAF-rapporter).

De tillgängliga stationerna syns som gula och röda prickar på kartan.

För musen över prickarna för att se namnen på stationerna.

Klicka sedan för att få väderrapporter och prognoser.

För att ändra kartan: Klicka på de gröna knapparna med ett svart kors på för att zooma in; den gröna knappen med ett streck på för att zooma ut; eller på de gröna pilarna för angränsande kartor.


METAR-TAF: